sensor_id;sensor_type;location;lat;lon;timestamp;pressure;altitude;pressure_sealevel;temperature;humidity
12360;BME280;6244;51.460;7.090;2022-11-20T11:25:29;49026.38;;;-141.68;59.00
12360;BME280;6244;51.460;7.090;2022-11-20T11:30:30;49026.38;;;-141.68;59.26
12360;BME280;6244;51.460;7.090;2022-11-20T11:35:42;49026.38;;;-141.68;59.30
12360;BME280;6244;51.460;7.090;2022-11-20T11:40:41;49024.41;;;-141.68;59.16
12360;BME280;6244;51.460;7.090;2022-11-20T11:45:38;49028.38;;;-141.68;58.89
12360;BME280;6244;51.460;7.090;2022-11-20T11:50:34;49024.41;;;-141.68;58.87
12360;BME280;6244;51.460;7.090;2022-11-20T11:55:31;49024.41;;;-141.68;58.91
12360;BME280;6244;51.460;7.090;2022-11-20T12:00:31;49026.38;;;-141.68;58.80
12360;BME280;6244;51.460;7.090;2022-11-20T12:05:34;49026.38;;;-141.68;59.09
12360;BME280;6244;51.460;7.090;2022-11-20T12:10:40;49026.38;;;-141.68;58.97
12360;BME280;6244;51.460;7.090;2022-11-20T12:15:44;49024.41;;;-141.68;58.93
12360;BME280;6244;51.460;7.090;2022-11-20T12:20:49;49024.41;;;-141.68;59.11
12360;BME280;6244;51.460;7.090;2022-11-20T12:25:53;49024.41;;;-141.68;59.22
12360;BME280;6244;51.460;7.090;2022-11-20T12:31:05;49026.38;;;-141.68;59.41
12360;BME280;6244;51.460;7.090;2022-11-20T12:36:09;49024.41;;;-141.68;59.39
12360;BME280;6244;51.460;7.090;2022-11-20T12:41:16;49024.41;;;-141.68;59.76
12360;BME280;6244;51.460;7.090;2022-11-20T12:46:41;49024.41;;;-141.68;59.86
12360;BME280;6244;51.460;7.090;2022-11-20T12:51:52;49026.38;;;-141.68;59.92
12360;BME280;6244;51.460;7.090;2022-11-20T12:56:57;49026.38;;;-141.68;59.72
12360;BME280;6244;51.460;7.090;2022-11-20T13:02:09;49026.38;;;-141.68;59.83
12360;BME280;6244;51.460;7.090;2022-11-20T13:07:13;49026.38;;;-141.68;59.88
12360;BME280;6244;51.460;7.090;2022-11-20T13:12:14;49024.41;;;-141.68;59.96
12360;BME280;6244;51.460;7.090;2022-11-20T13:17:18;49026.38;;;-141.68;60.02
12360;BME280;6244;51.460;7.090;2022-11-20T13:22:24;49022.41;;;-141.68;60.35
12360;BME280;6244;51.460;7.090;2022-11-20T13:27:21;49026.38;;;-141.68;60.42
12360;BME280;6244;51.460;7.090;2022-11-20T13:32:19;49024.41;;;-141.68;60.34
12360;BME280;6244;51.460;7.090;2022-11-20T13:37:23;49022.41;;;-141.68;60.33
12360;BME280;6244;51.460;7.090;2022-11-20T13:42:21;49022.41;;;-141.68;60.43
12360;BME280;6244;51.460;7.090;2022-11-20T13:47:24;49026.38;;;-141.68;60.59
12360;BME280;6244;51.460;7.090;2022-11-20T13:52:39;49026.38;;;-141.68;61.02
12360;BME280;6244;51.460;7.090;2022-11-20T13:57:44;49026.38;;;-141.68;61.13
12360;BME280;6244;51.460;7.090;2022-11-20T14:02:51;49024.41;;;-141.68;61.72
12360;BME280;6244;51.460;7.090;2022-11-20T14:07:54;49026.38;;;-141.68;62.38
12360;BME280;6244;51.460;7.090;2022-11-20T14:12:52;49024.41;;;-141.68;62.96
12360;BME280;6244;51.460;7.090;2022-11-20T14:17:50;49024.41;;;-141.68;63.47
12360;BME280;6244;51.460;7.090;2022-11-20T14:22:47;49026.38;;;-141.68;63.76
12360;BME280;6244;51.460;7.090;2022-11-20T14:27:44;49024.41;;;-141.68;63.83
12360;BME280;6244;51.460;7.090;2022-11-20T14:32:44;49024.41;;;-141.68;64.12
12360;BME280;6244;51.460;7.090;2022-11-20T14:37:42;49026.38;;;-141.68;64.37
12360;BME280;6244;51.460;7.090;2022-11-20T14:42:43;49022.41;;;-141.68;65.00
12360;BME280;6244;51.460;7.090;2022-11-20T14:47:41;49026.38;;;-141.68;65.85
12360;BME280;6244;51.460;7.090;2022-11-20T14:52:38;49024.41;;;-141.68;66.65
12360;BME280;6244;51.460;7.090;2022-11-20T14:57:35;49024.41;;;-141.68;66.95
12360;BME280;6244;51.460;7.090;2022-11-20T15:02:32;49024.41;;;-141.68;67.26
12360;BME280;6244;51.460;7.090;2022-11-20T15:07:32;49026.38;;;-141.68;67.40
12360;BME280;6244;51.460;7.090;2022-11-20T15:12:30;49024.41;;;-141.68;67.51
12360;BME280;6244;51.460;7.090;2022-11-20T15:17:28;49024.41;;;-141.68;67.66
12360;BME280;6244;51.460;7.090;2022-11-20T15:22:24;49026.38;;;-141.68;67.90
12360;BME280;6244;51.460;7.090;2022-11-20T15:27:20;49026.38;;;-141.68;68.08
12360;BME280;6244;51.460;7.090;2022-11-20T15:32:17;49024.41;;;-141.68;68.49
12360;BME280;6244;51.460;7.090;2022-11-20T15:37:15;49026.38;;;-141.68;68.69
12360;BME280;6244;51.460;7.090;2022-11-20T15:42:11;49026.38;;;-141.68;68.87
12360;BME280;6244;51.460;7.090;2022-11-20T15:47:07;49024.41;;;-141.68;68.98
12360;BME280;6244;51.460;7.090;2022-11-20T15:52:05;49024.41;;;-141.68;69.23
12360;BME280;6244;51.460;7.090;2022-11-20T15:57:03;49024.41;;;-141.68;69.42
12360;BME280;6244;51.460;7.090;2022-11-20T16:02:00;49022.41;;;-141.68;69.59
12360;BME280;6244;51.460;7.090;2022-11-20T16:06:56;49026.38;;;-141.68;69.61
12360;BME280;6244;51.460;7.090;2022-11-20T16:11:52;49026.38;;;-141.68;69.51
12360;BME280;6244;51.460;7.090;2022-11-20T16:16:50;49024.41;;;-141.68;69.57
12360;BME280;6244;51.460;7.090;2022-11-20T16:21:47;49024.41;;;-141.68;69.63
12360;BME280;6244;51.460;7.090;2022-11-20T16:26:43;49024.41;;;-141.68;69.96
12360;BME280;6244;51.460;7.090;2022-11-20T16:31:40;49024.41;;;-141.68;70.26
12360;BME280;6244;51.460;7.090;2022-11-20T16:36:38;49026.38;;;-141.68;70.55
12360;BME280;6244;51.460;7.090;2022-11-20T16:41:35;49024.41;;;-141.68;70.97
12360;BME280;6244;51.460;7.090;2022-11-20T16:46:32;49026.38;;;-141.68;71.29
12360;BME280;6244;51.460;7.090;2022-11-20T16:51:30;49024.41;;;-141.68;71.78
12360;BME280;6244;51.460;7.090;2022-11-20T16:56:28;49024.41;;;-141.68;71.96
12360;BME280;6244;51.460;7.090;2022-11-20T17:01:25;49024.41;;;-141.68;72.38
12360;BME280;6244;51.460;7.090;2022-11-20T17:06:23;49024.41;;;-141.68;72.64
12360;BME280;6244;51.460;7.090;2022-11-20T17:11:23;49026.38;;;-141.68;72.81
12360;BME280;6244;51.460;7.090;2022-11-20T17:16:21;49024.41;;;-141.68;73.02
12360;BME280;6244;51.460;7.090;2022-11-20T17:21:19;49028.38;;;-141.68;73.07
12360;BME280;6244;51.460;7.090;2022-11-20T17:26:20;49026.38;;;-141.68;73.28
12360;BME280;6244;51.460;7.090;2022-11-20T17:31:17;49026.38;;;-141.68;73.34
12360;BME280;6244;51.460;7.090;2022-11-20T17:36:16;49024.41;;;-141.68;73.48
12360;BME280;6244;51.460;7.090;2022-11-20T17:41:13;49024.41;;;-141.68;73.50
12360;BME280;6244;51.460;7.090;2022-11-20T17:46:11;49026.38;;;-141.68;73.65
12360;BME280;6244;51.460;7.090;2022-11-20T17:51:08;49024.41;;;-141.68;73.76
12360;BME280;6244;51.460;7.090;2022-11-20T17:56:06;49024.41;;;-141.68;73.84
12360;BME280;6244;51.460;7.090;2022-11-20T18:01:20;49026.38;;;-141.68;73.87
12360;BME280;6244;51.460;7.090;2022-11-20T18:06:18;49028.38;;;-141.68;73.97
12360;BME280;6244;51.460;7.090;2022-11-20T18:11:18;49026.38;;;-141.68;73.99
12360;BME280;6244;51.460;7.090;2022-11-20T18:16:16;49026.38;;;-141.68;74.05
12360;BME280;6244;51.460;7.090;2022-11-20T18:21:13;49026.38;;;-141.68;74.06
12360;BME280;6244;51.460;7.090;2022-11-20T18:26:12;49026.38;;;-141.68;74.13
12360;BME280;6244;51.460;7.090;2022-11-20T18:31:15;49026.38;;;-141.68;74.14
12360;BME280;6244;51.460;7.090;2022-11-20T18:36:14;49026.38;;;-141.68;74.21
12360;BME280;6244;51.460;7.090;2022-11-20T18:41:12;49022.41;;;-141.68;74.20
12360;BME280;6244;51.460;7.090;2022-11-20T18:46:28;49026.38;;;-141.68;74.06
12360;BME280;6244;51.460;7.090;2022-11-20T18:51:24;49024.41;;;-141.68;74.02
12360;BME280;6244;51.460;7.090;2022-11-20T18:56:21;49024.41;;;-141.68;74.09
12360;BME280;6244;51.460;7.090;2022-11-20T19:01:19;49024.41;;;-141.68;74.13
12360;BME280;6244;51.460;7.090;2022-11-20T19:06:17;49024.41;;;-141.68;74.07
12360;BME280;6244;51.460;7.090;2022-11-20T19:11:14;49026.38;;;-141.68;74.11
12360;BME280;6244;51.460;7.090;2022-11-20T19:16:12;49024.41;;;-141.68;74.16
12360;BME280;6244;51.460;7.090;2022-11-20T19:21:09;49024.41;;;-141.68;74.16
12360;BME280;6244;51.460;7.090;2022-11-20T19:26:08;49026.38;;;-141.68;74.13
12360;BME280;6244;51.460;7.090;2022-11-20T19:31:06;49024.41;;;-141.68;74.13
12360;BME280;6244;51.460;7.090;2022-11-20T19:36:09;49024.41;;;-141.68;74.08
12360;BME280;6244;51.460;7.090;2022-11-20T19:41:07;49026.38;;;-141.68;74.06
12360;BME280;6244;51.460;7.090;2022-11-20T19:46:04;49026.38;;;-141.68;73.97
12360;BME280;6244;51.460;7.090;2022-11-20T19:51:06;49024.41;;;-141.68;73.90
12360;BME280;6244;51.460;7.090;2022-11-20T19:56:03;49022.41;;;-141.68;73.87
12360;BME280;6244;51.460;7.090;2022-11-20T20:01:05;49026.38;;;-141.68;73.88
12360;BME280;6244;51.460;7.090;2022-11-20T20:06:02;49026.38;;;-141.68;73.92
12360;BME280;6244;51.460;7.090;2022-11-20T20:10:58;49026.38;;;-141.68;73.82
12360;BME280;6244;51.460;7.090;2022-11-20T20:15:55;49024.41;;;-141.68;73.85
12360;BME280;6244;51.460;7.090;2022-11-20T20:20:53;49022.41;;;-141.68;73.74
12360;BME280;6244;51.460;7.090;2022-11-20T20:25:49;49024.41;;;-141.68;73.76
12360;BME280;6244;51.460;7.090;2022-11-20T20:30:45;49022.41;;;-141.68;73.76
12360;BME280;6244;51.460;7.090;2022-11-20T20:35:42;49024.41;;;-141.68;73.76
12360;BME280;6244;51.460;7.090;2022-11-20T20:40:44;49024.41;;;-141.68;73.86
12360;BME280;6244;51.460;7.090;2022-11-20T20:45:44;49024.41;;;-141.68;73.66
12360;BME280;6244;51.460;7.090;2022-11-20T20:50:41;49026.38;;;-141.68;73.81
12360;BME280;6244;51.460;7.090;2022-11-20T20:55:39;49022.41;;;-141.68;73.77
12360;BME280;6244;51.460;7.090;2022-11-20T21:00:35;49026.38;;;-141.68;73.74
12360;BME280;6244;51.460;7.090;2022-11-20T21:05:32;49026.38;;;-141.68;73.77
12360;BME280;6244;51.460;7.090;2022-11-20T21:10:28;49026.38;;;-141.68;73.79
12360;BME280;6244;51.460;7.090;2022-11-20T21:15:26;49026.38;;;-141.68;73.82
12360;BME280;6244;51.460;7.090;2022-11-20T21:20:23;49024.41;;;-141.68;73.95
12360;BME280;6244;51.460;7.090;2022-11-20T21:25:37;49026.38;;;-141.68;73.97
12360;BME280;6244;51.460;7.090;2022-11-20T21:30:35;49026.38;;;-141.68;73.92
12360;BME280;6244;51.460;7.090;2022-11-20T21:35:32;49026.38;;;-141.68;74.01
12360;BME280;6244;51.460;7.090;2022-11-20T21:40:28;49024.41;;;-141.68;74.01
12360;BME280;6244;51.460;7.090;2022-11-20T21:45:25;49026.38;;;-141.68;74.09
12360;BME280;6244;51.460;7.090;2022-11-20T21:50:23;49024.41;;;-141.68;74.06
12360;BME280;6244;51.460;7.090;2022-11-20T21:55:19;49024.41;;;-141.68;74.16
12360;BME280;6244;51.460;7.090;2022-11-20T22:00:16;49024.41;;;-141.68;74.08
12360;BME280;6244;51.460;7.090;2022-11-20T22:05:13;49026.38;;;-141.68;74.09
12360;BME280;6244;51.460;7.090;2022-11-20T22:10:11;49022.41;;;-141.68;74.29
12360;BME280;6244;51.460;7.090;2022-11-20T22:15:08;49022.41;;;-141.68;74.16
12360;BME280;6244;51.460;7.090;2022-11-20T22:20:06;49026.38;;;-141.68;74.29
12360;BME280;6244;51.460;7.090;2022-11-20T22:25:07;49028.38;;;-141.68;74.32
12360;BME280;6244;51.460;7.090;2022-11-20T22:30:09;49024.41;;;-141.68;74.47
12360;BME280;6244;51.460;7.090;2022-11-20T22:35:06;49024.41;;;-141.68;74.39
12360;BME280;6244;51.460;7.090;2022-11-20T22:40:04;49024.41;;;-141.68;74.38
12360;BME280;6244;51.460;7.090;2022-11-20T22:45:00;49026.38;;;-141.68;74.30
12360;BME280;6244;51.460;7.090;2022-11-20T22:49:58;49024.41;;;-141.68;74.34
12360;BME280;6244;51.460;7.090;2022-11-20T22:54:55;49024.41;;;-141.68;74.47
12360;BME280;6244;51.460;7.090;2022-11-20T22:59:51;49026.38;;;-141.68;74.40
12360;BME280;6244;51.460;7.090;2022-11-20T23:04:48;49024.41;;;-141.68;74.42
12360;BME280;6244;51.460;7.090;2022-11-20T23:09:45;49024.41;;;-141.68;74.54
12360;BME280;6244;51.460;7.090;2022-11-20T23:14:42;49026.38;;;-141.68;74.40
12360;BME280;6244;51.460;7.090;2022-11-20T23:19:38;49024.41;;;-141.68;74.53
12360;BME280;6244;51.460;7.090;2022-11-20T23:24:35;49024.41;;;-141.68;74.46
12360;BME280;6244;51.460;7.090;2022-11-20T23:29:33;49024.41;;;-141.68;74.50
12360;BME280;6244;51.460;7.090;2022-11-20T23:34:29;49024.41;;;-141.68;74.54
12360;BME280;6244;51.460;7.090;2022-11-20T23:39:26;49026.38;;;-141.68;74.71
12360;BME280;6244;51.460;7.090;2022-11-20T23:44:22;49024.41;;;-141.68;74.55
12360;BME280;6244;51.460;7.090;2022-11-20T23:49:20;49024.41;;;-141.68;74.72
12360;BME280;6244;51.460;7.090;2022-11-20T23:54:17;49022.41;;;-141.68;74.62
12360;BME280;6244;51.460;7.090;2022-11-20T23:59:13;49024.41;;;-141.68;74.63
